Kyokuho Maru No.15 — JI3715 — position and weather

sailwx.info

Track history (hours):
 
Tides and Currents Weather Stations Pressure Air Temp Water Temp Dewpoint Dewpoint Depression Visibility Wind Speed Wind Dir Waves Ship Positions

Kyokuho Maru No.15

Last reported at 2015-Jan-27 08:16 UTC. Time now 2015-Jan-28 20:20 UTC.
Position N 34°36' E 134°52'.

Length 63 m; draft 3.2 m.

Type: Tanker. MMSI: 431301714.

Date/timePositionNaut miles runAvg speedWind from/ knotsBaromVisibWave heightAir tempDewpointWater temp
2015-Jan-27 08:16N 34°36' E 134°52'810.3
2015-Jan-27 07:32N 34°37' E 135°01'1110.9
2015-Jan-27 06:33N 34°35' E 135°14'6 6.4
2015-Jan-27 05:33N 34°34' E 135°21'1 0.5
2015-Jan-27 04:33N 34°35' E 135°21'6 6.1
2015-Jan-27 03:33N 34°40' E 135°25'0 0.1
2015-Jan-27 02:33N 34°40' E 135°25'0 0.2
2015-Jan-27 01:33N 34°40' E 135°25'0 0.0
2015-Jan-27 00:33N 34°40' E 135°25'1 1.0
2015-Jan-26 23:33N 34°39' E 135°25'2 1.9
2015-Jan-26 22:33N 34°40' E 135°22'0 0.0
2015-Jan-26 21:33N 34°40' E 135°22'0 0.0
2015-Jan-26 20:33N 34°40' E 135°22'0 0.1
2015-Jan-26 19:33N 34°40' E 135°22'7 6.9
2015-Jan-26 18:33N 34°34' E 135°17'1211.6
2015-Jan-26 17:33N 34°25' E 135°09'1111.3
2015-Jan-26 16:33N 34°15' E 135°03'204 8.5
2015-Jan-25 16:32N 34°48' E 139°07'2211.0
2015-Jan-25 14:33N 35°00' E 139°29'1111.5
2015-Jan-25 13:33N 35°06' E 139°41'1110.8
2015-Jan-25 12:33N 35°17' E 139°45'10 9.7
2015-Jan-25 11:33N 35°26' E 139°46'14 2.0
2015-Jan-25 04:33N 35°32' E 140°02'0 0.0
2015-Jan-25 02:04N 35°32' E 140°02'4 7.8
2015-Jan-25 01:30N 35°30' E 139°57'1010.9
2015-Jan-25 00:33N 35°25' E 139°47'10 9.7
2015-Jan-24 23:33N 35°15' E 139°47'1010.3
2015-Jan-24 22:33N 35°05' E 139°43'1110.5
2015-Jan-24 21:32N 34°58' E 139°33'21 0.6
2015-Jan-23 08:32N 34°51' E 139°10'1210.7
2015-Jan-23 07:27N 34°58' E 139°20'1010.6
2015-Jan-23 06:31N 35°03' E 139°31'1010.6
2015-Jan-23 05:32N 35°08' E 139°42'10 9.7
2015-Jan-23 04:33N 35°17' E 139°44'9 9.2
2015-Jan-23 03:33N 35°27' E 139°46'8 0.3
2015-Jan-22 03:33N 35°32' E 139°53'7 6.6
2015-Jan-22 02:33N 35°32' E 139°45'0 0.0
2015-Jan-22 01:33N 35°32' E 139°45'0 0.3
2015-Jan-22 00:33N 35°31' E 139°46'0 0.0
2015-Jan-21 23:33N 35°31' E 139°46'3 3.5
2015-Jan-21 22:48N 35°30' E 139°48'0 7.6
2015-Jan-21 22:46N 35°30' E 139°49'1 0.0
2015-Jan-21 08:10N 35°29' E 139°49'3 0.3
2015-Jan-20 22:33N 35°31' E 139°46'3 3.3
2015-Jan-20 21:33N 35°29' E 139°49'0 0.0
2015-Jan-20 20:33N 35°29' E 139°49'0 0.0
2015-Jan-20 19:34N 35°29' E 139°49'0 0.0
2015-Jan-20 18:33N 35°29' E 139°49'0 0.0
2015-Jan-20 17:34N 35°29' E 139°49'2 1.6
2015-Jan-20 16:34N 35°27' E 139°48'1110.6
2015-Jan-20 15:34N 35°17' E 139°46'10 9.9
2015-Jan-20 14:34N 35°07' E 139°45'10 9.6
2015-Jan-20 13:33N 35°00' E 139°36'10 9.8
2015-Jan-20 12:33N 34°55' E 139°26'1110.6
2015-Jan-20 11:32N 34°49' E 139°15'215 9.2
2015-Jan-19 12:12N 34°03' E 135°00'711.4
2015-Jan-19 11:33N 34°10' E 134°59'2210.9
2015-Jan-19 09:33N 34°32' E 135°02'6 5.9
2015-Jan-19 08:29N 34°35' E 134°56'5 0.3
2015-Jan-18 16:23N 34°34' E 134°50'8 9.1
2015-Jan-18 15:33N 34°38' E 134°59'8 8.3
2015-Jan-18 14:33N 34°35' E 135°08'1211.4
2015-Jan-18 13:31N 34°33' E 135°22'2 0.2
2015-Jan-18 03:33N 34°31' E 135°24'10 9.1
2015-Jan-18 02:27N 34°39' E 135°16'4 4.0
2015-Jan-18 01:34N 34°42' E 135°15'0 0.0
2015-Jan-18 00:33N 34°42' E 135°15'0 0.0
2015-Jan-17 23:33N 34°42' E 135°15'3 2.9
2015-Jan-17 22:34N 34°39' E 135°16'2 2.2
2015-Jan-17 21:34N 34°37' E 135°16'0 0.0
2015-Jan-17 20:33N 34°37' E 135°16'0 0.0
2015-Jan-17 19:21N 34°37' E 135°16'0 0.0
2015-Jan-17 18:33N 34°37' E 135°16'0 0.0
2015-Jan-17 17:33N 34°37' E 135°16'0 0.0
2015-Jan-17 16:33N 34°37' E 135°16'0 0.1
2015-Jan-17 15:33N 34°37' E 135°16'10 9.7
2015-Jan-17 14:34N 34°28' E 135°11'1010.1
2015-Jan-17 13:32N 34°19' E 135°05'9 9.1
2015-Jan-17 12:34N 34°11' E 135°03'  
Track history (hours):
 
Tides and Currents Weather Stations Pressure Air Temp Water Temp Dewpoint Dewpoint Depression Visibility Wind Speed Wind Dir Waves Ship Positions

Kyokuho Maru No.15

Last reported at 2015-Jan-27 08:16 UTC. Time now 2015-Jan-28 20:20 UTC.
Position N 34°36' E 134°52'.

Length 63 m; draft 3.2 m.

Type: Tanker. MMSI: 431301714.

Date/timePositionNaut miles runAvg speedWind from/ knotsBaromVisibWave heightAir tempDewpointWater temp
2015-Jan-27 08:16N 34°36' E 134°52'810.3
2015-Jan-27 07:32N 34°37' E 135°01'1110.9
2015-Jan-27 06:33N 34°35' E 135°14'6 6.4
2015-Jan-27 05:33N 34°34' E 135°21'1 0.5
2015-Jan-27 04:33N 34°35' E 135°21'6 6.1
2015-Jan-27 03:33N 34°40' E 135°25'0 0.1
2015-Jan-27 02:33N 34°40' E 135°25'0 0.2
2015-Jan-27 01:33N 34°40' E 135°25'0 0.0
2015-Jan-27 00:33N 34°40' E 135°25'1 1.0
2015-Jan-26 23:33N 34°39' E 135°25'2 1.9
2015-Jan-26 22:33N 34°40' E 135°22'0 0.0
2015-Jan-26 21:33N 34°40' E 135°22'0 0.0
2015-Jan-26 20:33N 34°40' E 135°22'0 0.1
2015-Jan-26 19:33N 34°40' E 135°22'7 6.9
2015-Jan-26 18:33N 34°34' E 135°17'1211.6
2015-Jan-26 17:33N 34°25' E 135°09'1111.3
2015-Jan-26 16:33N 34°15' E 135°03'204 8.5
2015-Jan-25 16:32N 34°48' E 139°07'2211.0
2015-Jan-25 14:33N 35°00' E 139°29'1111.5
2015-Jan-25 13:33N 35°06' E 139°41'1110.8
2015-Jan-25 12:33N 35°17' E 139°45'10 9.7
2015-Jan-25 11:33N 35°26' E 139°46'14 2.0
2015-Jan-25 04:33N 35°32' E 140°02'0 0.0
2015-Jan-25 02:04N 35°32' E 140°02'4 7.8
2015-Jan-25 01:30N 35°30' E 139°57'1010.9
2015-Jan-25 00:33N 35°25' E 139°47'10 9.7
2015-Jan-24 23:33N 35°15' E 139°47'1010.3
2015-Jan-24 22:33N 35°05' E 139°43'1110.5
2015-Jan-24 21:32N 34°58' E 139°33'21 0.6
2015-Jan-23 08:32N 34°51' E 139°10'1210.7
2015-Jan-23 07:27N 34°58' E 139°20'1010.6
2015-Jan-23 06:31N 35°03' E 139°31'1010.6
2015-Jan-23 05:32N 35°08' E 139°42'10 9.7
2015-Jan-23 04:33N 35°17' E 139°44'9 9.2
2015-Jan-23 03:33N 35°27' E 139°46'8 0.3
2015-Jan-22 03:33N 35°32' E 139°53'7 6.6
2015-Jan-22 02:33N 35°32' E 139°45'0 0.0
2015-Jan-22 01:33N 35°32' E 139°45'0 0.3
2015-Jan-22 00:33N 35°31' E 139°46'0 0.0
2015-Jan-21 23:33N 35°31' E 139°46'3 3.5
2015-Jan-21 22:48N 35°30' E 139°48'0 7.6
2015-Jan-21 22:46N 35°30' E 139°49'1 0.0
2015-Jan-21 08:10N 35°29' E 139°49'3 0.3
2015-Jan-20 22:33N 35°31' E 139°46'3 3.3
2015-Jan-20 21:33N 35°29' E 139°49'0 0.0
2015-Jan-20 20:33N 35°29' E 139°49'0 0.0
2015-Jan-20 19:34N 35°29' E 139°49'0 0.0
2015-Jan-20 18:33N 35°29' E 139°49'0 0.0
2015-Jan-20 17:34N 35°29' E 139°49'2 1.6
2015-Jan-20 16:34N 35°27' E 139°48'1110.6
2015-Jan-20 15:34N 35°17' E 139°46'10 9.9
2015-Jan-20 14:34N 35°07' E 139°45'10 9.6
2015-Jan-20 13:33N 35°00' E 139°36'10 9.8
2015-Jan-20 12:33N 34°55' E 139°26'1110.6
2015-Jan-20 11:32N 34°49' E 139°15'215 9.2
2015-Jan-19 12:12N 34°03' E 135°00'711.4
2015-Jan-19 11:33N 34°10' E 134°59'2210.9
2015-Jan-19 09:33N 34°32' E 135°02'6 5.9
2015-Jan-19 08:29N 34°35' E 134°56'5 0.3
2015-Jan-18 16:23N 34°34' E 134°50'8 9.1
2015-Jan-18 15:33N 34°38' E 134°59'8 8.3
2015-Jan-18 14:33N 34°35' E 135°08'1211.4
2015-Jan-18 13:31N 34°33' E 135°22'2 0.2
2015-Jan-18 03:33N 34°31' E 135°24'10 9.1
2015-Jan-18 02:27N 34°39' E 135°16'4 4.0
2015-Jan-18 01:34N 34°42' E 135°15'0 0.0
2015-Jan-18 00:33N 34°42' E 135°15'0 0.0
2015-Jan-17 23:33N 34°42' E 135°15'3 2.9
2015-Jan-17 22:34N 34°39' E 135°16'2 2.2
2015-Jan-17 21:34N 34°37' E 135°16'0 0.0
2015-Jan-17 20:33N 34°37' E 135°16'0 0.0
2015-Jan-17 19:21N 34°37' E 135°16'0 0.0
2015-Jan-17 18:33N 34°37' E 135°16'0 0.0
2015-Jan-17 17:33N 34°37' E 135°16'0 0.0
2015-Jan-17 16:33N 34°37' E 135°16'0 0.1
2015-Jan-17 15:33N 34°37' E 135°16'10 9.7
2015-Jan-17 14:34N 34°28' E 135°11'1010.1
2015-Jan-17 13:32N 34°19' E 135°05'9 9.1
2015-Jan-17 12:34N 34°11' E 135°03'  

Dump ship's entire track history